Time;durP1;ratioP1;P1;durP2;ratioP2;P2;SDS_P1;SDS_P2;PMS_P1;PMS_P2;Temp;Humidity;BMP_temperature;BMP_pressure;BME280_temperature;BME280_humidity;BME280_pressure;Samples;Min_cycle;Max_cycle;Signal;HPM_P1;HPM_P2
2022/04/21 00:00:04;;;;;;;5.20;4.63;;;;;;;6.33;60.00;95043.22;4992333;28;20184;-80
2022/04/21 00:02:29;;;;;;;8.03;5.00;;;;;;;6.32;60.18;95039.84;4977250;28;20175;-80
2022/04/21 00:04:55;;;;;;;6.30;5.10;;;;;;;6.34;60.60;95045.66;4991463;28;20188;-79
2022/04/21 00:07:22;;;;;;;6.00;5.03;;;;;;;6.28;60.83;95033.34;5006641;28;20208;-78
2022/04/21 00:09:47;;;;;;;8.10;4.70;;;;;;;6.20;61.37;95030.59;5007180;28;20180;-79
2022/04/21 00:12:12;;;;;;;7.30;4.93;;;;;;;6.18;60.88;95029.91;4973830;28;20181;-80
2022/04/21 00:14:38;;;;;;;8.60;4.90;;;;;;;6.15;61.05;95030.19;5006620;28;20192;-79
2022/04/21 00:17:03;;;;;;;6.23;4.77;;;;;;;6.14;61.74;95025.97;4993526;28;20179;-80
2022/04/21 00:19:29;;;;;;;5.03;4.50;;;;;;;6.18;61.66;95022.16;4966775;28;20581;-79
2022/04/21 00:24:38;;;;;;;7.60;5.17;;;;;;;6.06;62.46;95018.91;5002093;28;20660;-79
2022/04/21 00:27:03;;;;;;;7.30;5.53;;;;;;;6.08;62.64;95008.44;4993337;28;20184;-80
2022/04/21 00:29:29;;;;;;;6.00;5.10;;;;;;;5.96;62.54;95010.34;4994310;28;20184;-80
2022/04/21 00:31:54;;;;;;;6.07;5.20;;;;;;;5.92;62.90;95017.53;4977567;28;20189;-78
2022/04/21 00:34:19;;;;;;;5.57;4.90;;;;;;;6.01;63.19;95017.66;4972736;28;20204;-78
2022/04/21 00:36:45;;;;;;;5.77;4.93;;;;;;;5.97;63.08;95017.13;4990098;28;20789;-79
2022/04/21 00:39:11;;;;;;;7.23;4.60;;;;;;;5.97;63.41;95006.81;4972408;28;20220;-78
2022/04/21 00:41:36;;;;;;;5.20;4.70;;;;;;;5.92;64.05;95002.06;4978238;28;20252;-79
2022/04/21 00:44:01;;;;;;;7.53;4.93;;;;;;;5.90;63.74;94997.94;4977277;28;20645;-79
2022/04/21 00:46:27;;;;;;;7.03;5.27;;;;;;;5.84;63.78;95004.47;5009618;28;20192;-79
2022/04/21 00:48:52;;;;;;;7.63;5.50;;;;;;;5.72;64.20;94994.38;4993458;28;20299;-79
2022/04/21 00:51:18;;;;;;;6.47;5.50;;;;;;;5.73;64.44;95001.16;5009029;28;20188;-79
2022/04/21 00:53:43;;;;;;;6.63;5.37;;;;;;;5.73;64.75;95004.53;4977443;28;20183;-79
2022/04/21 00:56:09;;;;;;;7.17;5.00;;;;;;;5.71;64.73;95005.63;4986860;28;20214;-79
2022/04/21 00:58:36;;;;;;;7.03;4.73;;;;;;;5.54;65.23;94997.56;4996328;28;20208;-79
2022/04/21 01:01:03;;;;;;;8.43;5.20;;;;;;;5.54;65.51;94999.34;4971712;28;20196;-79
2022/04/21 01:03:28;;;;;;;7.80;5.13;;;;;;;5.48;65.23;94998.09;4991765;28;20212;-78
2022/04/21 01:05:54;;;;;;;6.57;5.27;;;;;;;5.53;65.59;95002.84;5009516;28;20215;-79
2022/04/21 01:08:19;;;;;;;6.37;5.43;;;;;;;5.50;65.70;95003.94;5009262;28;20255;-79
2022/04/21 01:10:45;;;;;;;6.87;5.90;;;;;;;5.53;66.15;95008.00;4976609;28;20187;-78
2022/04/21 01:13:12;;;;;;;6.83;6.00;;;;;;;5.46;65.70;94999.97;4979887;28;20243;-79
2022/04/21 01:15:38;;;;;;;7.93;5.43;;;;;;;5.43;66.37;95002.00;4996861;28;20738;-79
2022/04/21 01:18:05;;;;;;;6.83;5.40;;;;;;;5.40;66.53;95001.31;5010131;28;20227;-79
2022/04/21 01:20:30;;;;;;;6.60;5.90;;;;;;;5.42;67.07;94998.63;4993197;28;20174;-79
2022/04/21 01:22:56;;;;;;;6.57;5.83;;;;;;;5.40;66.94;94991.03;4965278;28;20538;-78
2022/04/21 01:25:22;;;;;;;6.33;5.73;;;;;;;5.34;67.08;94988.16;4991763;28;20184;-79
2022/04/21 01:27:48;;;;;;;7.73;6.20;;;;;;;5.34;67.15;94994.09;5008501;28;20270;-79
2022/04/21 01:30:14;;;;;;;7.70;5.90;;;;;;;5.30;67.39;94989.34;4985576;28;20234;-78
2022/04/21 01:32:44;;;;;;;7.33;5.57;;;;;;;5.22;67.45;94995.16;4978163;28;20180;-78
2022/04/21 01:35:10;;;;;;;7.87;6.87;;;;;;;5.14;67.52;94989.81;4976920;28;20211;-79
2022/04/21 01:43:04;;;;;;;6.63;6.03;;;;;;;5.00;68.86;94979.84;4994220;28;20243;-79
2022/04/21 01:45:30;;;;;;;7.80;5.93;;;;;;;5.02;68.47;94975.38;4980568;28;20180;-79
2022/04/21 01:47:56;;;;;;;7.03;6.00;;;;;;;4.95;68.86;94974.28;4972417;28;20201;-79
2022/04/21 01:50:22;;;;;;;7.73;6.20;;;;;;;4.91;68.93;94971.13;4975757;28;20218;-79
2022/04/21 01:52:48;;;;;;;6.93;6.23;;;;;;;4.86;69.45;94977.59;5009341;28;20191;-79
2022/04/21 01:55:13;;;;;;;9.37;6.97;;;;;;;4.98;69.39;94974.84;5009158;28;20173;-80
2022/04/21 01:57:38;;;;;;;9.50;7.33;;;;;;;4.95;69.45;94971.72;4992105;28;20242;-79
2022/04/21 02:00:04;;;;;;;9.20;6.80;;;;;;;5.07;69.81;94971.50;4992329;28;20239;-79
2022/04/21 02:02:30;;;;;;;7.43;6.70;;;;;;;5.09;70.40;94969.59;4989765;28;20192;-79
2022/04/21 02:04:55;;;;;;;8.50;7.17;;;;;;;5.10;70.23;94966.09;4994007;28;20180;-78
2022/04/21 02:07:21;;;;;;;7.83;7.10;;;;;;;5.08;70.42;94973.13;4973910;28;20208;-77
2022/04/21 02:09:46;;;;;;;10.40;7.33;;;;;;;5.12;70.88;94968.53;4975842;28;20190;-78
2022/04/21 02:12:11;;;;;;;9.77;7.37;;;;;;;5.16;70.88;94969.91;5009871;28;20188;-78
2022/04/21 02:14:37;;;;;;;9.63;7.00;;;;;;;5.14;70.95;94965.84;4993766;28;20208;-79
2022/04/21 02:17:05;;;;;;;10.63;7.53;;;;;;;5.01;71.56;94964.28;4977632;28;20199;-78
2022/04/21 02:19:30;;;;;;;8.50;7.57;;;;;;;4.93;71.43;94960.72;5007560;28;20181;-79
2022/04/21 02:21:55;;;;;;;12.83;7.83;;;;;;;4.87;71.63;94958.66;5008240;28;20180;-80
2022/04/21 02:24:21;;;;;;;10.87;7.53;;;;;;;4.98;72.26;94954.25;4995018;28;20212;-80
2022/04/21 02:26:46;;;;;;;8.53;7.27;;;;;;;5.00;72.67;94954.13;4976853;28;20199;-80
2022/04/21 02:29:11;;;;;;;8.17;7.33;;;;;;;4.95;72.38;94953.72;4979003;28;20199;-80
2022/04/21 02:31:37;;;;;;;8.43;7.57;;;;;;;4.92;72.75;94941.06;4961217;28;20188;-80
2022/04/21 02:34:02;;;;;;;11.10;7.77;;;;;;;4.95;73.32;94943.41;5008248;28;20189;-81
2022/04/21 02:36:27;;;;;;;10.00;8.50;;;;;;;4.88;73.08;94937.16;4977686;28;20748;-80
2022/04/21 02:38:52;;;;;;;11.20;8.13;;;;;;;4.84;73.00;94939.94;4976444;28;20212;-78
2022/04/21 02:41:18;;;;;;;10.10;8.50;;;;;;;4.83;73.13;94943.47;4990834;28;20192;-79
2022/04/21 02:43:43;;;;;;;9.30;7.97;;;;;;;4.84;73.35;94937.38;4975146;28;20216;-78
2022/04/21 02:46:09;;;;;;;9.50;7.90;;;;;;;4.81;73.32;94932.50;4991156;28;20548;-79
2022/04/21 02:48:35;;;;;;;9.83;8.43;;;;;;;4.83;73.26;94943.47;5007634;28;20200;-78
2022/04/21 02:51:00;;;;;;;9.00;8.00;;;;;;;4.89;73.33;94938.78;4974922;28;20191;-79
2022/04/21 02:59:07;;;;;;;11.77;8.33;;;;;;;4.68;73.62;94928.47;4974098;28;20686;-78
2022/04/21 03:01:32;;;;;;;11.20;8.90;;;;;;;4.58;73.52;94925.84;4977979;28;20266;-78
2022/04/21 03:03:58;;;;;;;11.93;9.20;;;;;;;4.56;74.29;94935.47;4994420;28;20219;-79
2022/04/21 03:06:23;;;;;;;10.17;9.17;;;;;;;4.46;74.62;94929.44;4979643;28;20186;-78
2022/04/21 03:08:48;;;;;;;10.23;9.07;;;;;;;4.49;74.19;94926.63;4990583;28;20711;-80
2022/04/21 03:11:14;;;;;;;9.73;8.67;;;;;;;4.46;74.76;94921.72;4987669;28;20190;-79
2022/04/21 03:13:39;;;;;;;12.23;8.83;;;;;;;4.38;74.33;94926.69;4992355;28;20191;-79
2022/04/21 03:16:04;;;;;;;9.67;8.47;;;;;;;4.30;74.72;94924.72;4981780;28;20185;-78
2022/04/21 03:18:30;;;;;;;9.60;8.70;;;;;;;4.25;74.47;94926.88;5006781;28;20619;-79
2022/04/21 03:26:23;;;;;;;10.57;8.97;;;;;;;4.13;75.21;94920.94;5002171;28;20185;-78
2022/04/21 03:28:48;;;;;;;9.77;8.77;;;;;;;4.06;75.38;94922.38;4976346;28;20204;-79
2022/04/21 03:31:14;;;;;;;10.77;9.37;;;;;;;4.02;75.89;94921.00;5008549;28;20210;-79
2022/04/21 03:33:39;;;;;;;10.77;9.10;;;;;;;3.98;75.76;94914.50;5007313;28;20188;-78
2022/04/21 03:36:04;;;;;;;10.10;8.97;;;;;;;3.94;76.11;94918.25;4990568;28;20739;-79
2022/04/21 03:38:30;;;;;;;12.37;9.13;;;;;;;3.92;76.30;94912.41;4989960;28;20303;-79
2022/04/21 03:40:56;;;;;;;9.97;9.03;;;;;;;3.90;76.54;94909.97;4982690;28;20181;-79
2022/04/21 03:43:22;;;;;;;11.67;9.57;;;;;;;3.89;76.34;94916.06;4993795;28;20223;-79
2022/04/21 03:45:47;;;;;;;11.77;9.70;;;;;;;3.84;76.94;94919.91;4991173;28;20194;-79
2022/04/21 03:48:13;;;;;;;11.23;9.07;;;;;;;3.84;76.75;94922.47;4990683;28;20204;-78
2022/04/21 03:50:39;;;;;;;9.80;8.80;;;;;;;3.78;77.37;94912.69;4990235;28;20186;-79
2022/04/21 03:53:05;;;;;;;9.63;8.60;;;;;;;3.84;76.63;94919.91;4989637;28;20202;-78
2022/04/21 03:55:30;;;;;;;11.70;8.80;;;;;;;3.79;76.51;94916.88;4975179;28;20782;-78
2022/04/21 03:57:55;;;;;;;10.60;8.70;;;;;;;3.79;76.70;94922.00;4974521;28;20211;-77
2022/04/21 04:00:21;;;;;;;11.13;10.03;;;;;;;3.74;77.38;94921.59;4999049;28;20198;-79
2022/04/21 04:02:46;;;;;;;12.87;9.40;;;;;;;3.75;76.99;94920.66;4977016;28;20696;-79
2022/04/21 04:05:11;;;;;;;12.27;9.13;;;;;;;3.75;77.40;94924.03;4974536;28;20185;-79
2022/04/21 04:13:04;;;;;;;10.90;9.63;;;;;;;3.72;77.86;94924.28;4994263;28;20190;-78
2022/04/21 04:15:30;;;;;;;12.07;10.67;;;;;;;3.68;77.85;94928.00;4980399;28;20179;-78
2022/04/21 04:17:55;;;;;;;11.10;9.97;;;;;;;3.66;77.97;94932.44;4996738;28;20201;-79
2022/04/21 04:20:21;;;;;;;10.93;9.87;;;;;;;3.66;77.86;94932.44;4956500;28;20190;-78
2022/04/21 04:22:46;;;;;;;11.03;9.77;;;;;;;3.70;77.79;94926.94;4966714;28;20217;-77
2022/04/21 04:25:11;;;;;;;11.27;10.13;;;;;;;3.69;78.03;94922.75;4976051;28;20910;-79
2022/04/21 04:27:37;;;;;;;12.43;11.13;;;;;;;3.83;78.04;94926.00;4978604;28;20211;-80
2022/04/21 04:30:07;;;;;;;14.90;11.57;;;;;;;3.87;78.09;94929.94;4976957;28;20678;-80
2022/04/21 04:32:32;;;;;;;13.73;11.20;;;;;;;3.91;78.04;94931.34;4994198;28;20179;-80
2022/04/21 04:34:57;;;;;;;13.50;11.57;;;;;;;3.95;77.98;94922.44;4956139;29;20225;-79
2022/04/21 04:37:23;;;;;;;12.30;10.97;;;;;;;4.02;77.54;94933.84;4964883;28;20204;-80
2022/04/21 04:39:48;;;;;;;12.90;11.53;;;;;;;4.09;77.49;94932.44;4976056;28;20200;-79
2022/04/21 04:42:16;;;;;;;15.70;12.23;;;;;;;4.15;77.07;94921.66;4995422;28;20690;-80
2022/04/21 04:44:43;;;;;;;15.83;12.37;;;;;;;4.26;76.77;94919.03;4995374;28;20209;-79
2022/04/21 04:47:08;;;;;;;17.40;12.80;;;;;;;4.33;77.11;94923.66;4993321;28;20334;-80
2022/04/21 04:49:33;;;;;;;16.10;12.77;;;;;;;4.33;76.92;94921.94;4995121;28;20642;-79
2022/04/21 04:51:58;;;;;;;16.77;12.40;;;;;;;4.39;77.19;94923.16;4994474;28;20190;-80
2022/04/21 04:54:25;;;;;;;12.83;11.63;;;;;;;4.46;76.51;94930.25;4979159;28;20208;-81
2022/04/21 04:56:50;;;;;;;13.37;11.97;;;;;;;4.74;75.91;94926.22;4985021;28;20713;-81
2022/04/21 04:59:16;;;;;;;14.60;12.30;;;;;;;5.79;72.57;94924.16;4963667;28;20265;-80
2022/04/21 05:01:43;;;;;;;12.13;10.90;;;;;;;7.24;67.70;94926.56;4974807;28;20188;-81
2022/04/21 05:04:14;;;;;;;12.83;10.17;;;;;;;8.21;64.22;94921.63;4976308;28;20207;-81
2022/04/21 05:06:47;;;;;;;11.50;10.03;;;;;;;8.63;61.33;94923.63;4975516;28;20177;-82
2022/04/21 05:09:14;;;;;;;11.77;9.20;;;;;;;8.49;60.62;94921.59;4964017;28;20688;-81
2022/04/21 05:11:42;;;;;;;12.50;9.93;;;;;;;8.30;60.70;94914.75;4975412;28;20176;-81
2022/04/21 05:14:08;;;;;;;11.00;9.90;;;;;;;7.47;62.70;94915.88;4977890;28;20583;-81
2022/04/21 05:16:36;;;;;;;14.40;10.03;;;;;;;7.13;64.83;94908.66;4999986;28;20180;-81
2022/04/21 05:19:02;;;;;;;13.70;10.80;;;;;;;6.72;67.45;94909.91;5001229;28;20226;-81
2022/04/21 05:21:28;;;;;;;12.10;10.73;;;;;;;6.73;67.27;94907.19;5002200;28;20188;-81
2022/04/21 05:23:57;;;;;;;11.97;10.80;;;;;;;6.88;67.27;94910.09;5004530;28;20216;-79
2022/04/21 05:26:24;;;;;;;12.73;10.97;;;;;;;6.76;67.71;94911.25;4997147;28;20187;-82
2022/04/21 05:28:50;;;;;;;13.37;11.73;;;;;;;6.74;68.54;94900.25;5002863;28;20196;-81
2022/04/21 05:31:16;;;;;;;13.07;11.67;;;;;;;6.71;69.14;94906.47;5010561;28;20196;-82
2022/04/21 05:33:42;;;;;;;12.70;11.40;;;;;;;6.59;69.02;94901.63;5014128;28;20188;-80
2022/04/21 05:36:08;;;;;;;14.97;12.10;;;;;;;6.69;69.50;94907.59;4994810;28;20181;-79
2022/04/21 05:38:34;;;;;;;13.43;12.13;;;;;;;6.49;69.89;94911.97;5014424;28;20194;-79
2022/04/21 05:41:00;;;;;;;12.93;11.73;;;;;;;6.72;69.36;94909.91;4995486;28;20184;-80
2022/04/21 05:43:30;;;;;;;13.37;11.53;;;;;;;6.80;68.87;94913.41;5005716;28;20207;-82
2022/04/21 05:45:55;;;;;;;13.30;11.80;;;;;;;6.70;68.81;94915.19;4993166;28;20195;-82
2022/04/21 05:48:21;;;;;;;13.87;12.50;;;;;;;6.71;69.57;94918.56;4968881;28;20204;-83
2022/04/21 05:50:50;;;;;;;12.70;11.40;;;;;;;6.61;70.11;94917.78;4950392;28;20255;-82
2022/04/21 05:53:23;;;;;;;13.47;12.10;;;;;;;6.76;69.30;94914.63;4985253;28;20184;-83
2022/04/21 05:55:50;;;;;;;14.37;11.80;;;;;;;6.75;69.67;94907.03;4989250;28;20250;-83
2022/04/21 05:58:15;;;;;;;14.70;12.63;;;;;;;6.73;69.68;94901.22;5008620;28;20299;-83
2022/04/21 06:00:41;;;;;;;16.13;13.20;;;;;;;6.85;69.42;94905.25;4992716;28;20239;-82
2022/04/21 06:03:07;;;;;;;14.23;12.77;;;;;;;6.82;69.83;94905.53;4983539;28;20704;-84
2022/04/21 06:05:32;;;;;;;14.93;12.90;;;;;;;6.74;69.85;94895.91;4971638;28;20193;-81
2022/04/21 06:07:57;;;;;;;15.23;12.43;;;;;;;6.90;69.67;94900.47;4979672;28;20211;-82
2022/04/21 06:10:23;;;;;;;13.83;12.53;;;;;;;6.90;69.52;94894.50;4993602;28;20198;-81
2022/04/21 06:12:49;;;;;;;14.27;12.87;;;;;;;7.16;68.81;94894.69;5004787;28;20207;-81
2022/04/21 06:15:14;;;;;;;14.53;12.87;;;;;;;7.24;68.67;94892.97;5002868;28;20206;-81
2022/04/21 06:17:42;;;;;;;13.83;12.57;;;;;;;7.21;68.06;94898.44;4999711;28;20204;-82
2022/04/21 06:20:08;;;;;;;14.10;12.33;;;;;;;6.78;69.07;94901.59;4980218;28;20231;-82
2022/04/21 06:22:33;;;;;;;13.93;12.47;;;;;;;6.99;69.23;94907.38;4964330;28;20199;-81
2022/04/21 06:24:59;;;;;;;15.13;13.27;;;;;;;6.89;69.18;94905.75;4992263;28;20180;-81
2022/04/21 06:27:24;;;;;;;13.77;12.17;;;;;;;6.81;69.54;94904.72;4977799;28;20239;-80
2022/04/21 06:29:49;;;;;;;14.87;13.27;;;;;;;6.81;69.21;94898.75;4989901;28;20184;-81
2022/04/21 06:32:15;;;;;;;13.73;12.17;;;;;;;7.13;68.72;94905.28;4995206;28;20191;-82
2022/04/21 06:34:40;;;;;;;14.63;13.20;;;;;;;7.18;68.12;94910.84;4965669;28;20184;-82
2022/04/21 06:37:05;;;;;;;15.03;13.53;;;;;;;7.27;68.29;94907.41;4996042;28;20190;-81
2022/04/21 06:39:30;;;;;;;15.93;14.27;;;;;;;7.36;68.00;94911.72;4978367;28;20214;-82
2022/04/21 06:41:56;;;;;;;15.63;14.03;;;;;;;7.48;67.51;94915.72;4965909;28;20557;-83
2022/04/21 06:49:49;;;;;;;14.37;12.83;;;;;;;9.47;61.07;94922.16;4989734;28;20190;-82
2022/04/21 06:52:14;;;;;;;14.03;12.10;;;;;;;10.25;57.79;94917.53;4963623;28;20191;-82
2022/04/21 06:54:40;;;;;;;15.87;12.33;;;;;;;10.07;56.92;94920.25;4992378;28;20180;-82
2022/04/21 06:57:05;;;;;;;13.70;12.30;;;;;;;9.84;57.79;94927.78;4978262;28;20188;-82
2022/04/21 06:59:30;;;;;;;13.47;11.03;;;;;;;9.49;59.81;94923.63;4976420;28;20192;-82
2022/04/21 07:01:55;;;;;;;13.70;12.30;;;;;;;9.61;59.02;94929.34;4988498;28;20183;-82
2022/04/21 07:04:21;;;;;;;17.00;12.60;;;;;;;9.09;60.40;94922.44;4962788;28;20212;-82
2022/04/21 07:06:46;;;;;;;14.77;12.67;;;;;;;9.54;59.30;94923.97;4979072;28;20196;-82
2022/04/21 07:09:12;;;;;;;14.23;12.90;;;;;;;9.63;58.44;94919.66;4972710;28;20219;-82
2022/04/21 07:11:38;;;;;;;15.07;12.17;;;;;;;9.16;58.23;94916.66;4985550;28;20212;-82
2022/04/21 07:14:03;;;;;;;14.80;12.87;;;;;;;8.99;59.56;94918.34;4979800;28;20192;-82
2022/04/21 07:16:29;;;;;;;17.20;12.60;;;;;;;9.12;58.87;94923.94;4992203;28;20187;-82
2022/04/21 07:18:54;;;;;;;13.97;12.37;;;;;;;8.73;59.48;94916.56;4963718;28;20204;-81
2022/04/21 07:21:19;;;;;;;13.83;12.40;;;;;;;9.04;58.12;94929.06;4987285;28;20574;-82
2022/04/21 07:23:45;;;;;;;12.87;11.43;;;;;;;8.93;57.80;94921.56;4983157;28;20204;-82
2022/04/21 07:26:10;;;;;;;15.77;11.70;;;;;;;8.99;58.65;94921.75;4966619;28;20192;-81
2022/04/21 07:28:36;;;;;;;12.43;11.17;;;;;;;9.28;57.16;94924.03;4979389;28;20216;-82
2022/04/21 07:31:01;;;;;;;12.83;11.43;;;;;;;9.07;57.54;94915.81;4989649;28;20196;-82
2022/04/21 07:33:27;;;;;;;13.80;11.87;;;;;;;9.11;57.78;94913.75;4984740;28;20179;-82
2022/04/21 07:35:52;;;;;;;13.90;12.40;;;;;;;9.57;57.78;94915.88;4982596;28;20220;-82
2022/04/21 07:38:17;;;;;;;12.43;11.13;;;;;;;9.61;55.35;94913.78;4978554;28;20212;-83
2022/04/21 07:40:43;;;;;;;12.57;11.27;;;;;;;9.51;55.40;94911.31;4989474;28;20191;-82
2022/04/21 07:43:09;;;;;;;13.43;11.67;;;;;;;9.20;57.41;94907.63;4974328;28;20204;-82
2022/04/21 07:45:37;;;;;;;14.27;11.57;;;;;;;9.12;56.58;94911.00;4978057;28;20189;-81
2022/04/21 07:48:03;;;;;;;14.37;11.93;;;;;;;9.34;57.81;94902.66;4977433;28;20684;-81
2022/04/21 07:50:28;;;;;;;12.90;11.20;;;;;;;9.74;55.58;94897.78;4982240;28;20188;-81
2022/04/21 07:55:38;;;;;;;16.60;11.57;;;;;;;9.71;54.81;94898.91;4975599;28;20513;-82
2022/04/21 07:58:03;;;;;;;15.27;11.67;;;;;;;9.46;54.67;94894.63;4960154;28;20287;-86
2022/04/21 08:00:28;;;;;;;12.67;11.47;;;;;;;9.93;55.09;94895.72;4960121;28;20247;-84
2022/04/21 08:02:54;;;;;;;13.33;11.87;;;;;;;10.02;54.44;94888.78;4974560;28;20195;-84
2022/04/21 08:05:20;;;;;;;11.97;10.33;;;;;;;10.43;54.44;94897.44;4977436;28;20192;-84
2022/04/21 08:07:46;;;;;;;16.30;10.70;;;;;;;10.52;52.65;94900.84;4975245;28;20196;-84
2022/04/21 08:10:13;;;;;;;11.87;10.37;;;;;;;10.82;51.48;94899.34;4962041;28;20493;-84
2022/04/21 08:12:39;;;;;;;12.47;10.50;;;;;;;10.84;50.97;94902.59;4973886;28;20180;-84
2022/04/21 08:15:07;;;;;;;11.90;10.63;;;;;;;10.74;50.84;94902.75;4969253;28;20180;-82
2022/04/21 08:17:32;;;;;;;13.33;10.67;;;;;;;10.40;50.43;94896.94;4974134;28;20204;-82
2022/04/21 08:19:57;;;;;;;11.47;10.40;;;;;;;10.71;50.38;94899.69;4985325;28;20663;-83
2022/04/21 08:22:22;;;;;;;11.03;9.93;;;;;;;10.63;50.60;94897.09;4974640;28;20667;-83
2022/04/21 08:33:00;;;;;;;11.93;10.77;;;;;;;11.40;48.60;94903.44;4971237;28;20187;-84
2022/04/21 08:35:25;;;;;;;13.10;11.37;;;;;;;11.26;49.19;94898.91;4978214;28;20183;-84
2022/04/21 08:37:51;;;;;;;14.57;10.60;;;;;;;11.59;48.98;94899.63;4966589;28;20215;-83
2022/04/21 08:40:16;;;;;;;13.43;9.97;;;;;;;11.89;48.46;94914.44;4955762;28;20267;-83
2022/04/21 08:42:43;;;;;;;10.77;9.67;;;;;;;12.05;46.56;94913.53;4985989;28;20283;-83
2022/04/21 08:45:09;;;;;;;12.17;9.63;;;;;;;11.41;47.72;94912.84;4975594;28;20187;-83
2022/04/21 08:47:36;;;;;;;11.03;9.50;;;;;;;11.26;47.35;94904.13;4986012;28;20205;-84
2022/04/21 08:50:05;;;;;;;10.83;9.73;;;;;;;11.40;49.41;94906.03;4987828;28;20250;-84
2022/04/21 08:52:31;;;;;;;11.50;10.40;;;;;;;11.36;48.81;94907.34;4973900;28;20272;-84
2022/04/21 08:54:56;;;;;;;12.13;10.83;;;;;;;11.49;48.57;94912.81;4955250;28;20208;-83
2022/04/21 08:57:22;;;;;;;15.90;11.53;;;;;;;10.94;52.18;94903.22;4972569;28;20708;-84
2022/04/21 08:59:47;;;;;;;13.40;12.00;;;;;;;11.05;51.57;94900.28;4980055;28;20548;-85
2022/04/21 09:02:13;;;;;;;14.33;10.80;;;;;;;11.54;50.51;94902.72;4988986;28;20197;-84
2022/04/21 09:04:38;;;;;;;11.53;10.33;;;;;;;11.90;48.67;94908.25;4960695;28;20543;-84
2022/04/21 09:07:20;;;;;;;12.70;10.30;;;;;;;12.02;47.67;94907.88;4967263;28;20188;-84
2022/04/21 09:10:06;;;;;;;11.77;10.60;;;;;;;12.33;48.02;94906.03;4963553;28;20182;-83
2022/04/21 09:12:32;;;;;;;14.00;11.10;;;;;;;12.06;46.32;94902.16;4990118;28;20807;-83
2022/04/21 09:14:57;;;;;;;11.83;10.03;;;;;;;12.28;46.79;94908.38;4979233;28;20339;-83
2022/04/21 09:17:23;;;;;;;10.27;9.27;;;;;;;12.42;46.51;94909.38;4985398;28;20599;-84
2022/04/21 09:19:59;;;;;;;11.83;9.70;;;;;;;12.66;46.00;94904.00;4974604;28;20268;-83
2022/04/21 09:22:25;;;;;;;11.73;10.63;;;;;;;12.04;46.09;94909.31;4957949;28;20196;-84
2022/04/21 09:24:53;;;;;;;11.97;10.47;;;;;;;12.24;47.20;94903.66;4975124;28;20751;-84
2022/04/21 09:27:20;;;;;;;12.23;10.93;;;;;;;12.46;47.28;94905.47;4977391;28;20212;-84
2022/04/21 09:29:45;;;;;;;11.37;10.30;;;;;;;12.57;47.00;94904.25;4959982;28;20177;-85
2022/04/21 09:32:16;;;;;;;14.33;11.17;;;;;;;12.07;47.45;94901.16;4954066;29;20288;-84
2022/04/21 09:34:42;;;;;;;12.27;10.43;;;;;;;12.47;47.38;94907.09;4964561;28;20191;-83
2022/04/21 09:37:07;;;;;;;12.33;10.77;;;;;;;12.47;47.56;94899.28;4972830;28;20188;-84
2022/04/21 09:39:38;;;;;;;12.20;9.70;;;;;;;12.28;47.13;94900.56;4987190;28;20263;-83
2022/04/21 09:42:03;;;;;;;11.50;10.30;;;;;;;12.71;47.67;94888.63;4979347;28;20184;-83
2022/04/21 09:47:21;;;;;;;17.87;11.03;;;;;;;12.69;45.83;94880.19;4982653;28;20215;-83
2022/04/21 09:49:47;;;;;;;11.70;10.60;;;;;;;12.81;46.95;94879.75;4992626;28;20257;-83
2022/04/21 09:52:12;;;;;;;11.83;10.67;;;;;;;13.11;45.92;94881.41;4975289;28;20600;-82
2022/04/21 09:54:40;;;;;;;12.83;11.10;;;;;;;13.27;47.33;94885.69;4958684;28;20188;-83
2022/04/21 09:57:07;;;;;;;13.77;11.60;;;;;;;12.86;45.65;94875.63;4982976;28;20186;-83
2022/04/21 09:59:35;;;;;;;13.17;10.73;;;;;;;12.82;45.71;94873.59;4974427;28;20765;-83
2022/04/21 10:02:04;;;;;;;13.40;11.20;;;;;;;12.25;46.70;94863.63;4973529;28;20193;-82
2022/04/21 10:04:29;;;;;;;10.83;9.73;;;;;;;11.94;48.46;94863.69;4976757;28;20207;-82
2022/04/21 10:06:55;;;;;;;12.60;9.93;;;;;;;11.71;47.74;94866.22;4993744;28;20188;-81
2022/04/21 10:09:21;;;;;;;11.13;10.00;;;;;;;11.83;48.04;94857.06;4969009;28;20603;-81
2022/04/21 10:11:47;;;;;;;10.37;9.27;;;;;;;12.24;46.64;94862.03;4984329;28;20187;-81
2022/04/21 10:14:15;;;;;;;13.80;11.10;;;;;;;12.04;48.39;94862.50;4978760;28;20533;-82
2022/04/21 10:16:42;;;;;;;11.97;10.77;;;;;;;12.50;46.69;94859.84;4991881;28;20183;-80
2022/04/21 10:19:08;;;;;;;11.47;9.97;;;;;;;13.06;47.21;94852.47;4982189;28;20223;-82
2022/04/21 10:21:52;;;;;;;12.17;10.97;;;;;;;13.19;46.18;94852.69;4993027;28;20180;-81
2022/04/21 10:24:22;;;;;;;13.20;10.43;;;;;;;13.37;46.04;94849.72;4961366;28;20205;-83
2022/04/21 10:26:47;;;;;;;13.37;10.83;;;;;;;13.23;47.41;94853.94;4970379;28;20634;-81
2022/04/21 10:29:13;;;;;;;12.97;11.70;;;;;;;12.86;46.86;94846.16;4975618;28;20275;-83
2022/04/21 10:32:04;;;;;;;12.30;10.30;;;;;;;13.05;46.20;94838.63;4974164;28;20192;-81
2022/04/21 10:34:40;;;;;;;16.10;11.00;;;;;;;13.03;46.52;94826.78;4973251;28;20634;-83
2022/04/21 10:37:20;;;;;;;11.97;10.77;;;;;;;13.22;47.36;94836.69;4980163;28;20647;-82
2022/04/21 10:40:09;;;;;;;12.70;11.50;;;;;;;13.27;46.59;94839.56;4998029;28;20188;-83
2022/04/21 10:42:53;;;;;;;18.07;12.17;;;;;;;12.96;47.05;94825.88;4991262;28;20250;-84
2022/04/21 10:45:22;;;;;;;15.77;10.20;;;;;;;13.28;47.16;94835.16;4986290;28;20776;-81
2022/04/21 10:48:12;;;;;;;14.50;11.80;;;;;;;12.74;48.40;94833.59;4973666;28;20758;-81
2022/04/21 10:50:41;;;;;;;11.83;10.63;;;;;;;12.85;47.53;94821.91;4992039;28;20239;-81
2022/04/21 10:58:38;;;;;;;12.77;11.10;;;;;;;12.95;48.13;94816.44;4980946;28;20770;-84
2022/04/21 11:01:10;;;;;;;11.20;10.13;;;;;;;13.60;46.81;94811.28;4985022;28;20203;-81
2022/04/21 11:03:36;;;;;;;11.27;10.10;;;;;;;13.04;46.61;94817.97;4986226;28;20664;-81
2022/04/21 11:06:09;;;;;;;10.80;9.60;;;;;;;13.69;45.34;94805.91;4989510;28;20202;-81
2022/04/21 11:08:34;;;;;;;11.83;10.70;;;;;;;13.44;45.91;94810.69;4976783;28;20211;-81
2022/04/21 11:10:59;;;;;;;10.33;9.23;;;;;;;13.84;46.32;94806.69;4980319;28;20180;-82
2022/04/21 11:13:50;;;;;;;11.87;10.77;;;;;;;13.35;47.05;94803.94;4979955;28;20261;-82
2022/04/21 11:16:45;;;;;;;12.27;10.30;;;;;;;13.97;46.04;94804.22;4971903;28;20188;-84
2022/04/21 11:19:28;;;;;;;11.80;10.33;;;;;;;13.74;46.00;94800.97;4970653;28;20250;-84
2022/04/21 11:21:58;;;;;;;11.30;9.20;;;;;;;14.31;47.48;94797.47;4984597;28;20538;-81
2022/04/21 11:24:23;;;;;;;11.00;9.97;;;;;;;13.99;44.62;94794.41;4976594;28;20230;-81
2022/04/21 11:26:57;;;;;;;10.97;9.97;;;;;;;13.56;46.08;94796.16;5009250;28;20629;-83
2022/04/21 11:29:23;;;;;;;11.03;9.90;;;;;;;13.56;45.78;94783.13;5009735;28;20200;-83
2022/04/21 11:31:48;;;;;;;10.50;9.20;;;;;;;13.65;47.22;94787.22;4995279;28;20271;-83
2022/04/21 11:34:22;;;;;;;11.13;10.00;;;;;;;14.03;45.72;94781.78;4978897;28;20184;-83
2022/04/21 11:36:47;;;;;;;10.50;9.50;;;;;;;14.59;43.24;94776.63;4994411;28;20180;-81
2022/04/21 11:39:13;;;;;;;9.80;8.93;;;;;;;14.21;44.06;94770.88;4959884;28;20239;-82
2022/04/21 11:41:44;;;;;;;9.60;8.43;;;;;;;14.36;45.40;94772.41;4957084;28;20579;-82
2022/04/21 11:44:09;;;;;;;8.50;7.70;;;;;;;14.51;44.44;94779.38;4988972;28;20696;-81
2022/04/21 11:46:41;;;;;;;8.30;7.47;;;;;;;14.80;45.16;94773.13;4990517;28;20195;-82
2022/04/21 11:49:08;;;;;;;9.13;7.60;;;;;;;15.51;42.69;94771.84;4974016;28;20206;-83
2022/04/21 11:51:33;;;;;;;8.20;7.40;;;;;;;15.61;44.83;94770.69;4988094;28;20626;-83
2022/04/21 11:54:06;;;;;;;7.23;6.63;;;;;;;15.65;42.93;94766.69;4973406;28;20223;-83
2022/04/21 11:56:32;;;;;;;6.40;5.73;;;;;;;16.08;40.33;94757.50;4957691;28;20196;-83
2022/04/21 11:59:03;;;;;;;6.53;5.93;;;;;;;16.57;40.49;94752.84;4973882;28;20204;-82
2022/04/21 12:06:57;;;;;;;6.10;4.80;;;;;;;16.65;40.76;94748.19;5001793;28;20248;-82
2022/04/21 12:09:28;;;;;;;5.47;4.97;;;;;;;15.40;42.19;94767.19;4972965;28;20276;-83
2022/04/21 12:12:00;;;;;;;5.30;4.80;;;;;;;15.07;42.72;94755.78;4972734;28;20688;-83
2022/04/21 12:14:27;;;;;;;5.40;4.90;;;;;;;14.53;43.47;94767.75;4989352;28;20548;-84
2022/04/21 12:16:54;;;;;;;5.70;5.20;;;;;;;14.16;44.71;94745.34;5005351;28;20176;-83
2022/04/21 12:19:39;;;;;;;5.77;4.20;;;;;;;14.19;45.12;94744.97;5005430;28;20180;-84
2022/04/21 12:22:09;;;;;;;5.87;4.80;;;;;;;14.24;45.05;94745.22;4988240;28;20840;-84